sensor_id;sensor_type;location;lat;lon;timestamp;pressure;altitude;pressure_sealevel;temperature;humidity
8894;BME280;4483;48.622;9.230;2023-03-31T00:01:49;97310.28;;;9.14;100.00
8894;BME280;4483;48.622;9.230;2023-03-31T00:04:17;97311.19;;;9.13;99.85
8894;BME280;4483;48.622;9.230;2023-03-31T00:06:48;97307.78;;;9.13;99.92
8894;BME280;4483;48.622;9.230;2023-03-31T00:09:18;97306.22;;;9.09;99.39
8894;BME280;4483;48.622;9.230;2023-03-31T00:11:46;97300.41;;;9.05;99.42
8894;BME280;4483;48.622;9.230;2023-03-31T00:14:14;97303.03;;;9.04;100.00
8894;BME280;4483;48.622;9.230;2023-03-31T00:16:43;97302.19;;;9.03;100.00
8894;BME280;4483;48.622;9.230;2023-03-31T00:19:11;97299.63;;;9.03;100.00
8894;BME280;4483;48.622;9.230;2023-03-31T00:21:42;97296.22;;;9.03;100.00
8894;BME280;4483;48.622;9.230;2023-03-31T00:24:10;97291.91;;;9.03;99.87
8894;BME280;4483;48.622;9.230;2023-03-31T00:26:38;97284.28;;;9.02;99.56
8894;BME280;4483;48.622;9.230;2023-03-31T00:29:06;97286.00;;;9.01;99.80
8894;BME280;4483;48.622;9.230;2023-03-31T00:31:33;97278.28;;;9.01;100.00
8894;BME280;4483;48.622;9.230;2023-03-31T00:34:01;97284.28;;;9.02;100.00
8894;BME280;4483;48.622;9.230;2023-03-31T00:36:28;97277.41;;;9.02;100.00
8894;BME280;4483;48.622;9.230;2023-03-31T00:38:56;97277.41;;;9.02;100.00
8894;BME280;4483;48.622;9.230;2023-03-31T00:41:24;97269.81;;;8.99;100.00
8894;BME280;4483;48.622;9.230;2023-03-31T00:44:05;97270.59;;;9.01;100.00
8894;BME280;4483;48.622;9.230;2023-03-31T00:46:33;97254.28;;;9.02;100.00
8894;BME280;4483;48.622;9.230;2023-03-31T00:49:02;97252.59;;;9.01;100.00
8894;BME280;4483;48.622;9.230;2023-03-31T00:51:31;97252.66;;;9.00;100.00
8894;BME280;4483;48.622;9.230;2023-03-31T00:54:00;97251.91;;;8.98;100.00
8894;BME280;4483;48.622;9.230;2023-03-31T00:56:33;97241.69;;;8.96;100.00
8894;BME280;4483;48.622;9.230;2023-03-31T00:59:02;97229.88;;;8.92;100.00
8894;BME280;4483;48.622;9.230;2023-03-31T01:01:33;97224.81;;;8.91;100.00
8894;BME280;4483;48.622;9.230;2023-03-31T01:04:02;97218.03;;;8.90;100.00
8894;BME280;4483;48.622;9.230;2023-03-31T01:06:31;97213.00;;;8.87;100.00
8894;BME280;4483;48.622;9.230;2023-03-31T01:08:59;97211.41;;;8.84;100.00
8894;BME280;4483;48.622;9.230;2023-03-31T01:11:31;97220.94;;;8.82;100.00
8894;BME280;4483;48.622;9.230;2023-03-31T01:13:59;97212.38;;;8.82;100.00
8894;BME280;4483;48.622;9.230;2023-03-31T01:16:27;97204.66;;;8.82;100.00
8894;BME280;4483;48.622;9.230;2023-03-31T01:18:54;97203.81;;;8.81;100.00
8894;BME280;4483;48.622;9.230;2023-03-31T01:21:54;97196.91;;;8.83;100.00
8894;BME280;4483;48.622;9.230;2023-03-31T01:24:52;97198.63;;;8.83;100.00
8894;BME280;4483;48.622;9.230;2023-03-31T01:27:52;97200.31;;;8.84;100.00
8894;BME280;4483;48.622;9.230;2023-03-31T01:33:44;97205.19;;;8.90;100.00
8894;BME280;4483;48.622;9.230;2023-03-31T01:39:59;97193.91;;;8.92;100.00
8894;BME280;4483;48.622;9.230;2023-03-31T01:42:35;97194.00;;;8.91;100.00
8894;BME280;4483;48.622;9.230;2023-03-31T01:45:10;97195.88;;;8.87;100.00
8894;BME280;4483;48.622;9.230;2023-03-31T01:47:44;97196.91;;;8.83;100.00
8894;BME280;4483;48.622;9.230;2023-03-31T01:50:21;97193.47;;;8.83;100.00
8894;BME280;4483;48.622;9.230;2023-03-31T01:52:56;97201.34;;;8.80;100.00
8894;BME280;4483;48.622;9.230;2023-03-31T01:55:29;97203.63;;;8.86;100.00
8894;BME280;4483;48.622;9.230;2023-03-31T01:58:03;97201.63;;;8.92;100.00
8894;BME280;4483;48.622;9.230;2023-03-31T02:00:36;97202.31;;;8.96;100.00
8894;BME280;4483;48.622;9.230;2023-03-31T02:03:09;97197.00;;;9.00;100.00
8894;BME280;4483;48.622;9.230;2023-03-31T02:05:40;97193.09;;;9.10;100.00
8894;BME280;4483;48.622;9.230;2023-03-31T02:08:12;97192.91;;;9.15;100.00
8894;BME280;4483;48.622;9.230;2023-03-31T02:10:43;97188.19;;;9.25;100.00
8894;BME280;4483;48.622;9.230;2023-03-31T02:13:12;97192.00;;;9.35;100.00
8894;BME280;4483;48.622;9.230;2023-03-31T02:15:42;97197.03;;;9.55;100.00
8894;BME280;4483;48.622;9.230;2023-03-31T02:18:13;97194.53;;;9.72;100.00
8894;BME280;4483;48.622;9.230;2023-03-31T02:20:43;97188.94;;;9.81;100.00
8894;BME280;4483;48.622;9.230;2023-03-31T02:23:14;97191.84;;;9.92;100.00
8894;BME280;4483;48.622;9.230;2023-03-31T02:25:47;97182.13;;;9.97;100.00
8894;BME280;4483;48.622;9.230;2023-03-31T02:28:19;97174.13;;;10.03;100.00
8894;BME280;4483;48.622;9.230;2023-03-31T02:30:52;97162.50;;;10.13;100.00
8894;BME280;4483;48.622;9.230;2023-03-31T02:33:21;97145.31;;;10.13;100.00
8894;BME280;4483;48.622;9.230;2023-03-31T02:35:48;97137.69;;;10.12;100.00
8894;BME280;4483;48.622;9.230;2023-03-31T02:38:15;97140.16;;;10.13;100.00
8894;BME280;4483;48.622;9.230;2023-03-31T02:40:44;97124.91;;;10.10;100.00
8894;BME280;4483;48.622;9.230;2023-03-31T02:43:10;97104.41;;;10.07;100.00
8894;BME280;4483;48.622;9.230;2023-03-31T02:45:41;97086.38;;;10.07;100.00
8894;BME280;4483;48.622;9.230;2023-03-31T02:48:12;97067.63;;;10.05;100.00
8894;BME280;4483;48.622;9.230;2023-03-31T02:50:53;97049.69;;;10.04;100.00
8894;BME280;4483;48.622;9.230;2023-03-31T02:53:28;97039.56;;;10.01;100.00
8894;BME280;4483;48.622;9.230;2023-03-31T02:56:10;97035.31;;;10.00;100.00
8894;BME280;4483;48.622;9.230;2023-03-31T02:58:51;97018.53;;;9.93;100.00
8894;BME280;4483;48.622;9.230;2023-03-31T03:04:27;97009.16;;;9.92;100.00
8894;BME280;4483;48.622;9.230;2023-03-31T03:07:02;97003.41;;;9.87;100.00
8894;BME280;4483;48.622;9.230;2023-03-31T03:09:44;96994.03;;;9.86;100.00
8894;BME280;4483;48.622;9.230;2023-03-31T03:12:21;96991.38;;;9.87;100.00
8894;BME280;4483;48.622;9.230;2023-03-31T03:14:52;96986.31;;;9.86;100.00
8894;BME280;4483;48.622;9.230;2023-03-31T03:17:24;96988.19;;;9.82;100.00
8894;BME280;4483;48.622;9.230;2023-03-31T03:19:54;96983.28;;;9.78;100.00
8894;BME280;4483;48.622;9.230;2023-03-31T03:22:21;96976.66;;;9.74;100.00
8894;BME280;4483;48.622;9.230;2023-03-31T03:24:48;96968.25;;;9.70;100.00
8894;BME280;4483;48.622;9.230;2023-03-31T03:27:15;96965.75;;;9.69;100.00
8894;BME280;4483;48.622;9.230;2023-03-31T03:29:43;96965.06;;;9.65;100.00
8894;BME280;4483;48.622;9.230;2023-03-31T03:32:10;96950.03;;;9.58;100.00
8894;BME280;4483;48.622;9.230;2023-03-31T03:34:36;96946.66;;;9.57;100.00
8894;BME280;4483;48.622;9.230;2023-03-31T03:37:03;96939.91;;;9.55;100.00
8894;BME280;4483;48.622;9.230;2023-03-31T03:39:30;96942.47;;;9.55;100.00
8894;BME280;4483;48.622;9.230;2023-03-31T03:41:56;96934.84;;;9.53;100.00
8894;BME280;4483;48.622;9.230;2023-03-31T03:44:23;96929.63;;;9.55;100.00
8894;BME280;4483;48.622;9.230;2023-03-31T03:46:51;96935.69;;;9.54;100.00
8894;BME280;4483;48.622;9.230;2023-03-31T03:49:18;96914.44;;;9.50;100.00
8894;BME280;4483;48.622;9.230;2023-03-31T03:51:44;96902.66;;;9.46;100.00
8894;BME280;4483;48.622;9.230;2023-03-31T03:54:11;96890.63;;;9.47;100.00
8894;BME280;4483;48.622;9.230;2023-03-31T03:56:37;96904.38;;;9.46;100.00
8894;BME280;4483;48.622;9.230;2023-03-31T03:59:04;96890.78;;;9.44;100.00
8894;BME280;4483;48.622;9.230;2023-03-31T04:01:31;96881.63;;;9.38;100.00
8894;BME280;4483;48.622;9.230;2023-03-31T04:03:59;96871.50;;;9.35;100.00
8894;BME280;4483;48.622;9.230;2023-03-31T04:06:25;96865.78;;;9.30;100.00
8894;BME280;4483;48.622;9.230;2023-03-31T04:08:52;96864.19;;;9.28;100.00
8894;BME280;4483;48.622;9.230;2023-03-31T04:11:19;96849.00;;;9.23;100.00
8894;BME280;4483;48.622;9.230;2023-03-31T04:13:46;96849.06;;;9.22;100.00
8894;BME280;4483;48.622;9.230;2023-03-31T04:16:13;96833.06;;;9.17;100.00
8894;BME280;4483;48.622;9.230;2023-03-31T04:18:41;96809.19;;;9.14;100.00
8894;BME280;4483;48.622;9.230;2023-03-31T04:21:10;96789.19;;;9.04;100.00
8894;BME280;4483;48.622;9.230;2023-03-31T04:23:40;96801.94;;;9.05;100.00
8894;BME280;4483;48.622;9.230;2023-03-31T04:26:11;96805.56;;;9.01;100.00
8894;BME280;4483;48.622;9.230;2023-03-31T04:28:38;96804.06;;;8.97;100.00
8894;BME280;4483;48.622;9.230;2023-03-31T04:31:08;96800.91;;;8.92;100.00
8894;BME280;4483;48.622;9.230;2023-03-31T04:33:39;96785.97;;;8.83;100.00
8894;BME280;4483;48.622;9.230;2023-03-31T04:36:11;96798.03;;;8.81;100.00
8894;BME280;4483;48.622;9.230;2023-03-31T04:38:42;96797.38;;;8.78;100.00
8894;BME280;4483;48.622;9.230;2023-03-31T04:41:11;96804.41;;;8.74;100.00
8894;BME280;4483;48.622;9.230;2023-03-31T04:43:37;96802.66;;;8.75;100.00
8894;BME280;4483;48.622;9.230;2023-03-31T04:46:05;96790.72;;;8.74;100.00
8894;BME280;4483;48.622;9.230;2023-03-31T04:48:31;96790.63;;;8.75;100.00
8894;BME280;4483;48.622;9.230;2023-03-31T04:50:58;96782.94;;;8.75;100.00
8894;BME280;4483;48.622;9.230;2023-03-31T04:53:26;96775.19;;;8.77;100.00
8894;BME280;4483;48.622;9.230;2023-03-31T04:55:53;96787.09;;;8.78;100.00
8894;BME280;4483;48.622;9.230;2023-03-31T04:58:19;96774.34;;;8.76;100.00
8894;BME280;4483;48.622;9.230;2023-03-31T05:00:46;96784.44;;;8.79;100.00
8894;BME280;4483;48.622;9.230;2023-03-31T05:03:13;96778.50;;;8.79;100.00
8894;BME280;4483;48.622;9.230;2023-03-31T05:05:39;96776.75;;;8.79;100.00
8894;BME280;4483;48.622;9.230;2023-03-31T05:08:06;96774.16;;;8.79;100.00
8894;BME280;4483;48.622;9.230;2023-03-31T05:10:34;96771.59;;;8.79;100.00
8894;BME280;4483;48.622;9.230;2023-03-31T05:13:01;96770.72;;;8.80;100.00
8894;BME280;4483;48.622;9.230;2023-03-31T05:15:27;96774.09;;;8.81;100.00
8894;BME280;4483;48.622;9.230;2023-03-31T05:17:54;96765.50;;;8.82;100.00
8894;BME280;4483;48.622;9.230;2023-03-31T05:20:23;96780.81;;;8.83;100.00
8894;BME280;4483;48.622;9.230;2023-03-31T05:22:49;96788.53;;;8.83;100.00
8894;BME280;4483;48.622;9.230;2023-03-31T05:25:16;96786.88;;;8.82;100.00
8894;BME280;4483;48.622;9.230;2023-03-31T05:27:46;96803.78;;;8.86;100.00
8894;BME280;4483;48.622;9.230;2023-03-31T05:30:13;96808.00;;;8.87;100.00
8894;BME280;4483;48.622;9.230;2023-03-31T05:32:40;96805.66;;;8.83;100.00
8894;BME280;4483;48.622;9.230;2023-03-31T05:35:07;96800.69;;;8.80;100.00
8894;BME280;4483;48.622;9.230;2023-03-31T05:37:35;96779.38;;;8.78;100.00
8894;BME280;4483;48.622;9.230;2023-03-31T05:40:02;96770.78;;;8.79;100.00
8894;BME280;4483;48.622;9.230;2023-03-31T05:42:30;96763.75;;;8.82;100.00
8894;BME280;4483;48.622;9.230;2023-03-31T05:44:58;96768.75;;;8.85;100.00
8894;BME280;4483;48.622;9.230;2023-03-31T05:47:24;96759.31;;;8.86;100.00
8894;BME280;4483;48.622;9.230;2023-03-31T05:49:51;96751.59;;;8.86;100.00
8894;BME280;4483;48.622;9.230;2023-03-31T05:52:18;96749.78;;;8.88;100.00
8894;BME280;4483;48.622;9.230;2023-03-31T05:54:44;96748.94;;;8.87;100.00
8894;BME280;4483;48.622;9.230;2023-03-31T05:57:11;96758.28;;;8.88;100.00
8894;BME280;4483;48.622;9.230;2023-03-31T05:59:37;96758.47;;;8.85;100.00
8894;BME280;4483;48.622;9.230;2023-03-31T06:02:10;96744.69;;;8.86;100.00
8894;BME280;4483;48.622;9.230;2023-03-31T06:04:37;96722.34;;;8.88;100.00
8894;BME280;4483;48.622;9.230;2023-03-31T06:07:04;96718.72;;;8.92;100.00
8894;BME280;4483;48.622;9.230;2023-03-31T06:09:32;96709.84;;;8.98;100.00
8894;BME280;4483;48.622;9.230;2023-03-31T06:11:59;96699.34;;;9.02;100.00
8894;BME280;4483;48.622;9.230;2023-03-31T06:14:26;96698.34;;;9.05;100.00
8894;BME280;4483;48.622;9.230;2023-03-31T06:16:53;96699.84;;;9.09;100.00
8894;BME280;4483;48.622;9.230;2023-03-31T06:19:21;96688.59;;;9.11;100.00
8894;BME280;4483;48.622;9.230;2023-03-31T06:21:49;96691.81;;;9.15;100.00
8894;BME280;4483;48.622;9.230;2023-03-31T06:24:16;96682.22;;;9.19;100.00
8894;BME280;4483;48.622;9.230;2023-03-31T06:26:42;96683.63;;;9.24;100.00
8894;BME280;4483;48.622;9.230;2023-03-31T06:29:09;96687.75;;;9.27;100.00
8894;BME280;4483;48.622;9.230;2023-03-31T06:31:36;96691.06;;;9.29;100.00
8894;BME280;4483;48.622;9.230;2023-03-31T06:34:02;96696.22;;;9.29;100.00
8894;BME280;4483;48.622;9.230;2023-03-31T06:36:30;96683.44;;;9.27;100.00
8894;BME280;4483;48.622;9.230;2023-03-31T06:38:57;96658.59;;;9.28;100.00
8894;BME280;4483;48.622;9.230;2023-03-31T06:41:24;96665.72;;;9.23;100.00
8894;BME280;4483;48.622;9.230;2023-03-31T06:43:50;96683.44;;;9.27;100.00
8894;BME280;4483;48.622;9.230;2023-03-31T06:46:17;96697.13;;;9.28;100.00
8894;BME280;4483;48.622;9.230;2023-03-31T06:48:44;96700.47;;;9.30;100.00
8894;BME280;4483;48.622;9.230;2023-03-31T06:51:11;96720.28;;;9.28;100.00
8894;BME280;4483;48.622;9.230;2023-03-31T06:53:39;96740.00;;;9.27;100.00
8894;BME280;4483;48.622;9.230;2023-03-31T06:56:06;96745.13;;;9.27;100.00
8894;BME280;4483;48.622;9.230;2023-03-31T06:58:33;96760.53;;;9.27;100.00
8894;BME280;4483;48.622;9.230;2023-03-31T07:01:01;96782.78;;;9.28;100.00
8894;BME280;4483;48.622;9.230;2023-03-31T07:03:28;96782.53;;;9.33;100.00
8894;BME280;4483;48.622;9.230;2023-03-31T07:05:55;96792.81;;;9.33;100.00
8894;BME280;4483;48.622;9.230;2023-03-31T07:08:22;96804.00;;;9.32;100.00
8894;BME280;4483;48.622;9.230;2023-03-31T07:10:53;96821.34;;;9.44;100.00
8894;BME280;4483;48.622;9.230;2023-03-31T07:13:22;96805.44;;;9.53;100.00
8894;BME280;4483;48.622;9.230;2023-03-31T07:15:48;96763.44;;;9.85;100.00
8894;BME280;4483;48.622;9.230;2023-03-31T07:18:15;96779.34;;;9.91;100.00
8894;BME280;4483;48.622;9.230;2023-03-31T07:20:43;96812.88;;;9.90;100.00
8894;BME280;4483;48.622;9.230;2023-03-31T07:23:12;96780.09;;;9.93;100.00
8894;BME280;4483;48.622;9.230;2023-03-31T07:25:39;96691.97;;;9.90;100.00
8894;BME280;4483;48.622;9.230;2023-03-31T07:28:07;96710.00;;;10.04;100.00
8894;BME280;4483;48.622;9.230;2023-03-31T07:30:34;96712.50;;;10.05;100.00
8894;BME280;4483;48.622;9.230;2023-03-31T07:33:01;96721.88;;;10.22;100.00
8894;BME280;4483;48.622;9.230;2023-03-31T07:35:27;96738.81;;;10.26;100.00
8894;BME280;4483;48.622;9.230;2023-03-31T07:37:54;96736.88;;;10.30;100.00
8894;BME280;4483;48.622;9.230;2023-03-31T07:40:22;96733.63;;;10.42;100.00
8894;BME280;4483;48.622;9.230;2023-03-31T07:42:50;96740.34;;;10.44;100.00
8894;BME280;4483;48.622;9.230;2023-03-31T07:45:19;96738.16;;;10.52;100.00
8894;BME280;4483;48.622;9.230;2023-03-31T07:47:46;96727.13;;;10.64;100.00
8894;BME280;4483;48.622;9.230;2023-03-31T07:50:14;96734.81;;;10.80;100.00
8894;BME280;4483;48.622;9.230;2023-03-31T07:52:41;96731.13;;;10.84;100.00
8894;BME280;4483;48.622;9.230;2023-03-31T07:55:09;96714.56;;;10.88;100.00
8894;BME280;4483;48.622;9.230;2023-03-31T07:57:36;96711.06;;;11.17;100.00
8894;BME280;4483;48.622;9.230;2023-03-31T08:00:04;96694.06;;;11.96;100.00
8894;BME280;4483;48.622;9.230;2023-03-31T08:02:34;96690.47;;;12.50;100.00
8894;BME280;4483;48.622;9.230;2023-03-31T08:05:01;96677.06;;;12.83;100.00
8894;BME280;4483;48.622;9.230;2023-03-31T08:07:27;96671.25;;;12.92;100.00
8894;BME280;4483;48.622;9.230;2023-03-31T08:09:55;96668.16;;;12.99;100.00
8894;BME280;4483;48.622;9.230;2023-03-31T08:12:22;96668.88;;;13.27;100.00
8894;BME280;4483;48.622;9.230;2023-03-31T08:14:49;96660.66;;;13.45;99.50
8894;BME280;4483;48.622;9.230;2023-03-31T08:17:16;96663.28;;;14.03;100.00
8894;BME280;4483;48.622;9.230;2023-03-31T08:19:43;96654.06;;;14.58;97.22
8894;BME280;4483;48.622;9.230;2023-03-31T08:22:10;96652.59;;;15.10;91.42
8894;BME280;4483;48.622;9.230;2023-03-31T08:24:36;96649.03;;;15.56;90.91
8894;BME280;4483;48.622;9.230;2023-03-31T08:27:03;96647.75;;;15.93;84.91
8894;BME280;4483;48.622;9.230;2023-03-31T08:29:30;96653.78;;;16.14;82.91
8894;BME280;4483;48.622;9.230;2023-03-31T08:31:56;96648.13;;;16.41;81.31
8894;BME280;4483;48.622;9.230;2023-03-31T08:34:23;96641.66;;;16.76;80.63
8894;BME280;4483;48.622;9.230;2023-03-31T08:36:51;96644.53;;;17.03;76.99
8894;BME280;4483;48.622;9.230;2023-03-31T08:39:18;96644.31;;;17.16;73.86
8894;BME280;4483;48.622;9.230;2023-03-31T08:41:52;96643.03;;;17.41;71.91
8894;BME280;4483;48.622;9.230;2023-03-31T08:44:25;96637.19;;;17.48;69.97
8894;BME280;4483;48.622;9.230;2023-03-31T08:46:54;96648.88;;;17.73;67.69
8894;BME280;4483;48.622;9.230;2023-03-31T08:49:23;96637.53;;;17.93;67.00
8894;BME280;4483;48.622;9.230;2023-03-31T08:51:55;96643.84;;;18.19;65.67
8894;BME280;4483;48.622;9.230;2023-03-31T08:54:30;96647.41;;;18.37;64.33
8894;BME280;4483;48.622;9.230;2023-03-31T08:56:57;96641.38;;;18.65;63.03
8894;BME280;4483;48.622;9.230;2023-03-31T08:59:26;96638.63;;;18.67;60.73
8894;BME280;4483;48.622;9.230;2023-03-31T09:02:00;96625.00;;;18.82;60.73
8894;BME280;4483;48.622;9.230;2023-03-31T09:04:44;96626.81;;;19.09;58.96
8894;BME280;4483;48.622;9.230;2023-03-31T09:07:24;96621.88;;;19.43;59.61
8894;BME280;4483;48.622;9.230;2023-03-31T09:10:04;96634.81;;;19.62;56.99
8894;BME280;4483;48.622;9.230;2023-03-31T09:12:44;96603.84;;;19.67;56.72
8894;BME280;4483;48.622;9.230;2023-03-31T09:15:23;96613.91;;;19.62;54.51
8894;BME280;4483;48.622;9.230;2023-03-31T09:17:52;96606.06;;;19.62;53.86
8894;BME280;4483;48.622;9.230;2023-03-31T09:20:22;96591.66;;;19.58;52.10
8894;BME280;4483;48.622;9.230;2023-03-31T09:23:00;96588.56;;;19.89;53.01
8894;BME280;4483;48.622;9.230;2023-03-31T09:25:31;96576.38;;;19.98;51.83
8894;BME280;4483;48.622;9.230;2023-03-31T09:28:01;96584.28;;;20.06;50.57
8894;BME280;4483;48.622;9.230;2023-03-31T09:30:30;96574.59;;;20.16;49.89
8894;BME280;4483;48.622;9.230;2023-03-31T09:33:10;96569.09;;;20.45;48.70
8894;BME280;4483;48.622;9.230;2023-03-31T09:35:37;96559.25;;;20.64;48.06
8894;BME280;4483;48.622;9.230;2023-03-31T09:38:05;96584.28;;;20.41;47.63
8894;BME280;4483;48.622;9.230;2023-03-31T09:40:33;96580.25;;;20.12;47.54
8894;BME280;4483;48.622;9.230;2023-03-31T09:43:02;96576.03;;;19.75;46.86
8894;BME280;4483;48.622;9.230;2023-03-31T09:45:30;96565.53;;;19.40;46.35
8894;BME280;4483;48.622;9.230;2023-03-31T09:48:00;96566.09;;;19.79;47.27
8894;BME280;4483;48.622;9.230;2023-03-31T09:50:28;96548.28;;;20.00;46.77
8894;BME280;4483;48.622;9.230;2023-03-31T09:52:56;96558.69;;;20.53;47.01
8894;BME280;4483;48.622;9.230;2023-03-31T09:55:27;96548.00;;;20.03;46.17
8894;BME280;4483;48.622;9.230;2023-03-31T09:57:59;96539.81;;;19.63;46.09
8894;BME280;4483;48.622;9.230;2023-03-31T10:00:26;96534.25;;;20.19;46.67
8894;BME280;4483;48.622;9.230;2023-03-31T10:02:54;96543.50;;;20.13;46.01
8894;BME280;4483;48.622;9.230;2023-03-31T10:05:29;96533.00;;;20.05;45.76
8894;BME280;4483;48.622;9.230;2023-03-31T10:08:23;96534.50;;;19.28;46.25
8894;BME280;4483;48.622;9.230;2023-03-31T10:10:53;96531.63;;;18.76;47.75
8894;BME280;4483;48.622;9.230;2023-03-31T10:13:22;96516.84;;;18.94;47.22
8894;BME280;4483;48.622;9.230;2023-03-31T10:15:52;96519.59;;;18.93;47.82
8894;BME280;4483;48.622;9.230;2023-03-31T10:18:33;96521.44;;;18.73;48.77
8894;BME280;4483;48.622;9.230;2023-03-31T10:21:03;96539.75;;;19.00;47.52
8894;BME280;4483;48.622;9.230;2023-03-31T10:23:31;96514.66;;;19.17;46.60
8894;BME280;4483;48.622;9.230;2023-03-31T10:26:00;96506.69;;;19.19;47.16
8894;BME280;4483;48.622;9.230;2023-03-31T10:28:30;96501.28;;;19.47;46.05
8894;BME280;4483;48.622;9.230;2023-03-31T10:30:58;96493.97;;;19.51;46.36
8894;BME280;4483;48.622;9.230;2023-03-31T10:33:29;96491.66;;;19.48;45.03
8894;BME280;4483;48.622;9.230;2023-03-31T10:36:00;96487.50;;;19.98;45.42
8894;BME280;4483;48.622;9.230;2023-03-31T10:38:29;96470.88;;;20.50;43.44
8894;BME280;4483;48.622;9.230;2023-03-31T10:40:59;96463.63;;;20.78;43.16
8894;BME280;4483;48.622;9.230;2023-03-31T10:43:28;96455.28;;;21.32;42.35
8894;BME280;4483;48.622;9.230;2023-03-31T10:45:56;96454.19;;;21.83;41.65
8894;BME280;4483;48.622;9.230;2023-03-31T10:48:26;96443.03;;;21.57;40.15
8894;BME280;4483;48.622;9.230;2023-03-31T10:50:53;96444.31;;;21.29;38.84
8894;BME280;4483;48.622;9.230;2023-03-31T10:53:20;96440.63;;;20.56;39.39
8894;BME280;4483;48.622;9.230;2023-03-31T10:56:00;96446.97;;;19.94;40.54
8894;BME280;4483;48.622;9.230;2023-03-31T10:58:42;96454.94;;;19.49;41.53
8894;BME280;4483;48.622;9.230;2023-03-31T11:01:22;96452.94;;;19.16;42.45
8894;BME280;4483;48.622;9.230;2023-03-31T11:06:51;96448.69;;;18.97;44.38
8894;BME280;4483;48.622;9.230;2023-03-31T11:09:38;96435.72;;;19.05;44.37
8894;BME280;4483;48.622;9.230;2023-03-31T11:12:17;96431.28;;;18.88;44.39
8894;BME280;4483;48.622;9.230;2023-03-31T11:14:54;96432.97;;;18.62;45.38
8894;BME280;4483;48.622;9.230;2023-03-31T11:17:34;96439.66;;;18.28;44.83
8894;BME280;4483;48.622;9.230;2023-03-31T11:20:14;96448.00;;;17.95;46.09
8894;BME280;4483;48.622;9.230;2023-03-31T11:22:49;96521.13;;;17.55;48.50
8894;BME280;4483;48.622;9.230;2023-03-31T11:25:37;96585.41;;;16.75;54.61
8894;BME280;4483;48.622;9.230;2023-03-31T11:28:25;96635.78;;;16.01;58.35
8894;BME280;4483;48.622;9.230;2023-03-31T11:31:10;96702.09;;;15.19;65.16
8894;BME280;4483;48.622;9.230;2023-03-31T11:33:53;96696.22;;;14.25;66.65
8894;BME280;4483;48.622;9.230;2023-03-31T11:36:38;96697.69;;;13.46;69.77
8894;BME280;4483;48.622;9.230;2023-03-31T11:39:32;96675.31;;;12.83;72.09
8894;BME280;4483;48.622;9.230;2023-03-31T11:42:06;96687.56;;;12.55;74.89
8894;BME280;4483;48.622;9.230;2023-03-31T11:44:38;96686.59;;;12.31;76.08
8894;BME280;4483;48.622;9.230;2023-03-31T11:47:09;96701.94;;;12.07;77.52
8894;BME280;4483;48.622;9.230;2023-03-31T11:49:40;96695.69;;;11.84;78.36
8894;BME280;4483;48.622;9.230;2023-03-31T11:52:14;96630.41;;;11.70;79.53
8894;BME280;4483;48.622;9.230;2023-03-31T11:54:45;96635.97;;;11.50;81.71
8894;BME280;4483;48.622;9.230;2023-03-31T11:57:19;96622.09;;;11.38;81.76
8894;BME280;4483;48.622;9.230;2023-03-31T11:59:54;96633.47;;;11.48;82.74
8894;BME280;4483;48.622;9.230;2023-03-31T12:02:30;96628.38;;;11.61;82.70
8894;BME280;4483;48.622;9.230;2023-03-31T12:04:59;96618.69;;;11.91;81.94
8894;BME280;4483;48.622;9.230;2023-03-31T12:07:31;96616.69;;;12.46;81.75
8894;BME280;4483;48.622;9.230;2023-03-31T12:10:04;96597.84;;;12.94;81.05
8894;BME280;4483;48.622;9.230;2023-03-31T12:12:41;96605.16;;;13.00;79.35
8894;BME280;4483;48.622;9.230;2023-03-31T12:15:16;96593.47;;;13.20;78.31
8894;BME280;4483;48.622;9.230;2023-03-31T12:17:47;96591.16;;;13.52;74.83
8894;BME280;4483;48.622;9.230;2023-03-31T12:20:22;96590.97;;;13.55;75.13
8894;BME280;4483;48.622;9.230;2023-03-31T12:22:51;96597.28;;;13.74;74.42
8894;BME280;4483;48.622;9.230;2023-03-31T12:25:20;96572.66;;;13.69;74.02
8894;BME280;4483;48.622;9.230;2023-03-31T12:27:50;96569.72;;;13.97;73.77
8894;BME280;4483;48.622;9.230;2023-03-31T12:30:28;96550.38;;;14.58;73.33
8894;BME280;4483;48.622;9.230;2023-03-31T12:33:00;96524.09;;;15.06;68.06
8894;BME280;4483;48.622;9.230;2023-03-31T12:35:33;96512.91;;;15.49;67.72
8894;BME280;4483;48.622;9.230;2023-03-31T12:38:21;96494.41;;;15.63;66.58
8894;BME280;4483;48.622;9.230;2023-03-31T12:40:58;96495.22;;;15.95;63.80
8894;BME280;4483;48.622;9.230;2023-03-31T12:43:49;96492.78;;;16.54;63.58
8894;BME280;4483;48.622;9.230;2023-03-31T12:49:25;96476.50;;;17.01;59.38
8894;BME280;4483;48.622;9.230;2023-03-31T12:51:59;96477.63;;;17.18;56.12
8894;BME280;4483;48.622;9.230;2023-03-31T12:54:50;96488.00;;;16.98;56.01
8894;BME280;4483;48.622;9.230;2023-03-31T12:57:20;96480.88;;;17.00;56.02
8894;BME280;4483;48.622;9.230;2023-03-31T13:05:58;96490.66;;;17.84;53.13
8894;BME280;4483;48.622;9.230;2023-03-31T13:08:53;96478.31;;;17.86;53.52
8894;BME280;4483;48.622;9.230;2023-03-31T13:11:32;96479.19;;;17.49;53.53
8894;BME280;4483;48.622;9.230;2023-03-31T13:14:02;96478.81;;;16.94;54.01
8894;BME280;4483;48.622;9.230;2023-03-31T13:16:30;96515.94;;;16.36;54.84
8894;BME280;4483;48.622;9.230;2023-03-31T13:18:59;96501.69;;;16.10;55.68
8894;BME280;4483;48.622;9.230;2023-03-31T13:21:26;96492.78;;;16.03;56.82
8894;BME280;4483;48.622;9.230;2023-03-31T13:23:58;96475.94;;;15.97;57.60
8894;BME280;4483;48.622;9.230;2023-03-31T13:26:39;96480.94;;;15.89;57.31
8894;BME280;4483;48.622;9.230;2023-03-31T13:29:16;96484.63;;;15.87;58.27
8894;BME280;4483;48.622;9.230;2023-03-31T13:34:58;96481.88;;;15.68;59.90
8894;BME280;4483;48.622;9.230;2023-03-31T13:37:55;96506.47;;;15.64;60.12
8894;BME280;4483;48.622;9.230;2023-03-31T13:46:49;96543.31;;;14.82;66.55
8894;BME280;4483;48.622;9.230;2023-03-31T13:49:39;96613.53;;;14.46;67.58
8894;BME280;4483;48.622;9.230;2023-03-31T13:55:30;96593.84;;;13.27;71.08
8894;BME280;4483;48.622;9.230;2023-03-31T13:58:21;96599.19;;;12.87;75.01
8894;BME280;4483;48.622;9.230;2023-03-31T14:01:03;96569.88;;;12.63;75.55
8894;BME280;4483;48.622;9.230;2023-03-31T14:03:51;96540.47;;;12.28;77.97
8894;BME280;4483;48.622;9.230;2023-03-31T14:06:25;96534.97;;;12.07;78.85
8894;BME280;4483;48.622;9.230;2023-03-31T14:08:57;96521.06;;;12.10;79.35
8894;BME280;4483;48.622;9.230;2023-03-31T14:11:26;96499.88;;;12.30;80.32
8894;BME280;4483;48.622;9.230;2023-03-31T14:14:01;96495.28;;;12.46;81.87
8894;BME280;4483;48.622;9.230;2023-03-31T14:16:31;96488.13;;;12.62;80.48